Time;durP1;ratioP1;P1;durP2;ratioP2;P2;SDS_P1;SDS_P2;PMS_P1;PMS_P2;Temp;Humidity;BMP_temperature;BMP_pressure;BME280_temperature;BME280_humidity;BME280_pressure;Samples;Min_cycle;Max_cycle;Signal;HPM_P1;HPM_P2
2023/05/10 00:00:41;;;;;;;13.40;10.20;;;;;;;-128.00;-1.00;-1.00;105738;1251;1004412;-71
2023/05/10 00:03:11;;;;;;;14.20;10.20;;;;;;;-128.00;-1.00;-1.00;105729;1251;1060622;-71
2023/05/10 00:05:38;;;;;;;13.00;9.80;;;;;;;-128.00;-1.00;-1.00;105731;1251;1004198;-71
2023/05/10 00:08:04;;;;;;;15.10;10.80;;;;;;;-128.00;-1.00;-1.00;105735;1251;1003262;-71
2023/05/10 00:10:31;;;;;;;14.90;11.20;;;;;;;-128.00;-1.00;-1.00;105744;1251;1004830;-71
2023/05/10 00:12:58;;;;;;;13.90;9.90;;;;;;;-128.00;-1.00;-1.00;105724;1251;1004551;-71
2023/05/10 00:15:24;;;;;;;13.30;10.30;;;;;;;-128.00;-1.00;-1.00;105727;1251;1004207;-71
2023/05/10 00:17:51;;;;;;;14.60;10.60;;;;;;;-128.00;-1.00;-1.00;105754;1251;1004584;-71
2023/05/10 00:20:17;;;;;;;12.80;9.90;;;;;;;-128.00;-1.00;-1.00;105714;1251;1003993;-71
2023/05/10 00:22:44;;;;;;;14.60;10.60;;;;;;;-128.00;-1.00;-1.00;105705;1251;1004725;-71
2023/05/10 00:25:10;;;;;;;14.50;10.10;;;;;;;-128.00;-1.00;-1.00;105743;1251;1005189;-71
2023/05/10 00:27:37;;;;;;;14.00;10.10;;;;;;;-128.00;-1.00;-1.00;105705;1252;1004631;-71
2023/05/10 00:30:04;;;;;;;13.80;10.70;;;;;;;-128.00;-1.00;-1.00;105768;1251;1004700;-71
2023/05/10 00:32:30;;;;;;;14.60;10.70;;;;;;;-128.00;-1.00;-1.00;105714;1251;1004512;-71
2023/05/10 00:34:57;;;;;;;12.30;11.00;;;;;;;-128.00;-1.00;-1.00;105704;1251;1004014;-71
2023/05/10 00:37:24;;;;;;;14.30;10.70;;;;;;;-128.00;-1.00;-1.00;105558;1251;1004324;-71
2023/05/10 00:39:50;;;;;;;15.00;12.00;;;;;;;-128.00;-1.00;-1.00;105613;1251;1004829;-71
2023/05/10 00:42:17;;;;;;;12.90;10.50;;;;;;;-128.00;-1.00;-1.00;105715;1252;1004591;-71
2023/05/10 00:44:43;;;;;;;13.70;11.10;;;;;;;-128.00;-1.00;-1.00;105737;1251;1004030;-71
2023/05/10 00:47:11;;;;;;;14.30;10.30;;;;;;;-128.00;-1.00;-1.00;105737;1251;1005808;-71
2023/05/10 00:49:38;;;;;;;15.40;11.20;;;;;;;-128.00;-1.00;-1.00;105745;1251;1004743;-71
2023/05/10 00:52:04;;;;;;;13.80;11.00;;;;;;;-128.00;-1.00;-1.00;105689;1251;1004249;-71
2023/05/10 00:54:31;;;;;;;16.50;12.40;;;;;;;-128.00;-1.00;-1.00;105683;1251;1003339;-71
2023/05/10 00:56:58;;;;;;;15.40;11.40;;;;;;;-128.00;-1.00;-1.00;105711;1251;1004231;-71
2023/05/10 00:59:25;;;;;;;13.90;11.10;;;;;;;-128.00;-1.00;-1.00;105715;1251;1004674;-71
2023/05/10 01:01:51;;;;;;;15.00;11.90;;;;;;;-128.00;-1.00;-1.00;105671;1251;1003984;-71
2023/05/10 01:04:19;;;;;;;15.10;12.00;;;;;;;-128.00;-1.00;-1.00;105754;1251;1004313;-71
2023/05/10 01:06:46;;;;;;;16.80;11.90;;;;;;;-128.00;-1.00;-1.00;105428;1250;1004887;-71
2023/05/10 01:09:13;;;;;;;17.80;12.40;;;;;;;-128.00;-1.00;-1.00;105734;1251;1004163;-71
2023/05/10 01:11:40;;;;;;;16.50;13.10;;;;;;;-128.00;-1.00;-1.00;105726;1251;1004588;-71
2023/05/10 01:14:07;;;;;;;16.60;11.70;;;;;;;-128.00;-1.00;-1.00;105769;1251;1004031;-71
2023/05/10 01:16:38;;;;;;;14.30;11.70;;;;;;;-128.00;-1.00;-1.00;105740;1251;1004076;-71
2023/05/10 01:19:11;;;;;;;15.70;11.80;;;;;;;-128.00;-1.00;-1.00;105809;1250;1057004;-71
2023/05/10 01:21:48;;;;;;;15.80;11.60;;;;;;;-128.00;-1.00;-1.00;105777;1251;1059844;-71
2023/05/10 01:24:17;;;;;;;13.90;11.70;;;;;;;-128.00;-1.00;-1.00;105758;1251;1045532;-71
2023/05/10 01:27:01;;;;;;;14.50;11.50;;;;;;;-128.00;-1.00;-1.00;105734;1251;1048008;-71
2023/05/10 01:29:58;;;;;;;14.30;11.90;;;;;;;-128.00;-1.00;-1.00;105702;1251;1061664;-71
2023/05/10 01:32:50;;;;;;;12.20;10.90;;;;;;;-128.00;-1.00;-1.00;105728;1251;1055021;-71
2023/05/10 01:35:28;;;;;;;17.90;12.10;;;;;;;-128.00;-1.00;-1.00;105575;1253;1058533;-71
2023/05/10 01:38:13;;;;;;;16.10;10.90;;;;;;;-128.00;-1.00;-1.00;105575;1253;1044536;-71
2023/05/10 01:40:48;;;;;;;13.90;11.40;;;;;;;-128.00;-1.00;-1.00;105592;1253;1047271;-71
2023/05/10 01:43:24;;;;;;;15.80;11.60;;;;;;;-128.00;-1.00;-1.00;105251;1253;1062142;-71
2023/05/10 01:46:00;;;;;;;14.50;11.10;;;;;;;-128.00;-1.00;-1.00;105560;1253;1056480;-71
2023/05/10 01:48:28;;;;;;;14.60;11.40;;;;;;;-128.00;-1.00;-1.00;105540;1254;1058494;-71
2023/05/10 01:50:57;;;;;;;17.00;11.50;;;;;;;-128.00;-1.00;-1.00;105546;1254;1004194;-71
2023/05/10 01:53:23;;;;;;;13.30;10.50;;;;;;;-128.00;-1.00;-1.00;105616;1253;1046554;-71
2023/05/10 01:55:53;;;;;;;17.30;11.80;;;;;;;-128.00;-1.00;-1.00;105564;1254;1004688;-71
2023/05/10 01:58:27;;;;;;;16.50;11.00;;;;;;;-128.00;-1.00;-1.00;105549;1253;1055972;-71
2023/05/10 02:00:54;;;;;;;15.90;11.90;;;;;;;-128.00;-1.00;-1.00;105542;1253;1059214;-71
2023/05/10 02:03:23;;;;;;;15.80;12.00;;;;;;;-128.00;-1.00;-1.00;105578;1254;1004692;-71
2023/05/10 02:05:53;;;;;;;13.90;11.30;;;;;;;-128.00;-1.00;-1.00;105553;1253;1046276;-71
2023/05/10 02:08:21;;;;;;;14.00;12.30;;;;;;;-128.00;-1.00;-1.00;105607;1253;1061801;-71
2023/05/10 02:10:50;;;;;;;14.90;12.20;;;;;;;-128.00;-1.00;-1.00;105565;1253;1055465;-71
2023/05/10 02:13:18;;;;;;;15.90;12.00;;;;;;;-128.00;-1.00;-1.00;105525;1251;1059933;-71
2023/05/10 02:15:48;;;;;;;14.80;12.00;;;;;;;-128.00;-1.00;-1.00;105728;1251;1045456;-71
2023/05/10 02:18:16;;;;;;;16.20;11.90;;;;;;;-128.00;-1.00;-1.00;105713;1251;1047099;-71
2023/05/10 02:20:45;;;;;;;14.30;11.30;;;;;;;-128.00;-1.00;-1.00;105567;1251;1004509;-71
2023/05/10 02:23:13;;;;;;;17.20;12.00;;;;;;;-128.00;-1.00;-1.00;105571;1251;1055814;-71
2023/05/10 02:25:43;;;;;;;16.50;12.00;;;;;;;-128.00;-1.00;-1.00;105680;1251;1004259;-71
2023/05/10 02:28:11;;;;;;;13.10;10.90;;;;;;;-128.00;-1.00;-1.00;105725;1251;1044502;-71
2023/05/10 02:30:39;;;;;;;17.30;12.50;;;;;;;-128.00;-1.00;-1.00;105758;1251;1046957;-70
2023/05/10 02:33:06;;;;;;;14.10;11.20;;;;;;;-128.00;-1.00;-1.00;105803;1251;1004571;-71
2023/05/10 02:35:34;;;;;;;17.70;11.40;;;;;;;-128.00;-1.00;-1.00;105736;1251;1004414;-70
2023/05/10 02:38:02;;;;;;;13.10;11.20;;;;;;;-128.00;-1.00;-1.00;105729;1251;1003665;-71
2023/05/10 02:40:30;;;;;;;17.00;11.80;;;;;;;-128.00;-1.00;-1.00;105750;1251;1003389;-71
2023/05/10 02:42:57;;;;;;;14.20;11.20;;;;;;;-128.00;-1.00;-1.00;105717;1251;1003795;-71
2023/05/10 02:45:28;;;;;;;12.40;10.70;;;;;;;-128.00;-1.00;-1.00;105773;1251;1003397;-71
2023/05/10 02:47:55;;;;;;;16.40;11.00;;;;;;;-128.00;-1.00;-1.00;105691;1251;1056732;-71
2023/05/10 02:50:22;;;;;;;14.70;11.30;;;;;;;-128.00;-1.00;-1.00;105725;1251;1003511;-71
2023/05/10 02:52:54;;;;;;;17.40;11.80;;;;;;;-128.00;-1.00;-1.00;105695;1251;1004284;-71
2023/05/10 02:55:32;;;;;;;16.10;11.40;;;;;;;-128.00;-1.00;-1.00;105686;1251;1047157;-71
2023/05/10 02:58:01;;;;;;;15.30;11.30;;;;;;;-128.00;-1.00;-1.00;105018;1251;1060595;-71
2023/05/10 03:00:27;;;;;;;15.70;11.80;;;;;;;-128.00;-1.00;-1.00;105788;1251;1055454;-71
2023/05/10 03:02:54;;;;;;;15.00;10.90;;;;;;;-128.00;-1.00;-1.00;105767;1251;1004523;-71
2023/05/10 03:05:21;;;;;;;16.50;11.40;;;;;;;-128.00;-1.00;-1.00;105762;1251;1003831;-71
2023/05/10 03:07:48;;;;;;;14.40;11.40;;;;;;;-128.00;-1.00;-1.00;105802;1251;1003784;-71
2023/05/10 03:10:15;;;;;;;16.10;10.50;;;;;;;-128.00;-1.00;-1.00;105516;1251;1003904;-71
2023/05/10 03:13:10;;;;;;;14.60;11.10;;;;;;;-128.00;-1.00;-1.00;105730;1251;1003875;-71
2023/05/10 03:15:59;;;;;;;13.30;11.20;;;;;;;-128.00;-1.00;-1.00;105710;1251;1059109;-70
2023/05/10 03:18:33;;;;;;;15.40;11.40;;;;;;;-128.00;-1.00;-1.00;105748;1251;1044843;-70
2023/05/10 03:21:07;;;;;;;18.10;10.20;;;;;;;-128.00;-1.00;-1.00;105715;1251;1046512;-70
2023/05/10 03:23:38;;;;;;;15.60;11.20;;;;;;;-128.00;-1.00;-1.00;105761;1251;1060872;-70
2023/05/10 03:26:07;;;;;;;15.20;10.80;;;;;;;-128.00;-1.00;-1.00;105718;1251;1056789;-71
2023/05/10 03:28:35;;;;;;;15.90;10.20;;;;;;;-128.00;-1.00;-1.00;105741;1251;1004183;-70
2023/05/10 03:31:05;;;;;;;14.00;10.20;;;;;;;-128.00;-1.00;-1.00;105689;1251;1003584;-70
2023/05/10 03:33:32;;;;;;;13.40;10.40;;;;;;;-128.00;-1.00;-1.00;105439;1253;1047932;-70
2023/05/10 03:35:58;;;;;;;14.40;10.10;;;;;;;-128.00;-1.00;-1.00;105733;1251;1004135;-71
2023/05/10 03:38:25;;;;;;;12.20;10.10;;;;;;;-128.00;-1.00;-1.00;105760;1251;1003611;-71
2023/05/10 03:40:51;;;;;;;14.80;10.60;;;;;;;-128.00;-1.00;-1.00;105585;1251;1003885;-71
2023/05/10 03:43:18;;;;;;;13.40;10.20;;;;;;;-128.00;-1.00;-1.00;105769;1251;1003543;-71
2023/05/10 03:45:44;;;;;;;11.30;9.50;;;;;;;-128.00;-1.00;-1.00;105761;1251;1004219;-71
2023/05/10 03:48:11;;;;;;;12.20;10.00;;;;;;;-128.00;-1.00;-1.00;105764;1251;1004650;-71
2023/05/10 03:50:37;;;;;;;12.00;8.90;;;;;;;-128.00;-1.00;-1.00;105821;1251;1004852;-71
2023/05/10 03:53:04;;;;;;;11.70;9.30;;;;;;;-128.00;-1.00;-1.00;105763;1251;1003719;-71
2023/05/10 03:55:34;;;;;;;9.90;8.90;;;;;;;-128.00;-1.00;-1.00;105682;1251;1003486;-72
2023/05/10 03:58:00;;;;;;;;;;;;;;;-128.00;-1.00;-1.00;105786;1251;1046849;-71
2023/05/10 04:00:27;;;;;;;12.40;8.70;;;;;;;-128.00;-1.00;-1.00;105733;1251;1004359;-71
2023/05/10 04:02:53;;;;;;;9.80;8.10;;;;;;;-128.00;-1.00;-1.00;105716;1251;1004674;-71
2023/05/10 04:05:20;;;;;;;13.40;8.70;;;;;;;-128.00;-1.00;-1.00;105767;1251;1005520;-71
2023/05/10 04:07:49;;;;;;;9.20;8.00;;;;;;;-128.00;-1.00;-1.00;105710;1253;1003610;-71
2023/05/10 04:10:16;;;;;;;11.10;8.80;;;;;;;-128.00;-1.00;-1.00;105791;1251;1046869;-71
2023/05/10 04:12:42;;;;;;;11.90;9.30;;;;;;;-128.00;-1.00;-1.00;105726;1251;1004590;-71
2023/05/10 04:15:09;;;;;;;9.80;8.80;;;;;;;-128.00;-1.00;-1.00;105781;1251;1004293;-71
2023/05/10 04:17:35;;;;;;;9.50;8.40;;;;;;;-128.00;-1.00;-1.00;105780;1251;1004181;-71
2023/05/10 04:20:03;;;;;;;9.70;8.50;;;;;;;-128.00;-1.00;-1.00;105679;1251;1004253;-71
2023/05/10 04:22:30;;;;;;;9.90;8.30;;;;;;;-128.00;-1.00;-1.00;105545;1251;1004635;-72
2023/05/10 04:24:56;;;;;;;9.50;8.10;;;;;;;-128.00;-1.00;-1.00;105765;1251;1005125;-71
2023/05/10 04:27:23;;;;;;;10.00;8.00;;;;;;;-128.00;-1.00;-1.00;105748;1254;1004853;-71
2023/05/10 04:29:50;;;;;;;11.30;8.70;;;;;;;-128.00;-1.00;-1.00;105691;1251;1004375;-71
2023/05/10 04:32:17;;;;;;;9.10;8.30;;;;;;;-128.00;-1.00;-1.00;105737;1251;1003862;-71
2023/05/10 04:34:43;;;;;;;11.00;8.80;;;;;;;-128.00;-1.00;-1.00;105753;1251;1005195;-71
2023/05/10 04:37:10;;;;;;;11.60;8.90;;;;;;;-128.00;-1.00;-1.00;105716;1251;1004026;-71
2023/05/10 04:39:36;;;;;;;8.90;7.20;;;;;;;-128.00;-1.00;-1.00;105734;1251;1003987;-72
2023/05/10 04:42:05;;;;;;;9.10;7.70;;;;;;;-128.00;-1.00;-1.00;105705;1252;1004128;-72
2023/05/10 04:44:32;;;;;;;8.70;7.80;;;;;;;-128.00;-1.00;-1.00;105717;1251;1045069;-72
2023/05/10 04:46:59;;;;;;;9.90;7.90;;;;;;;-128.00;-1.00;-1.00;105747;1251;1004907;-71
2023/05/10 04:49:25;;;;;;;9.00;7.60;;;;;;;-128.00;-1.00;-1.00;105713;1251;1005171;-70
2023/05/10 04:51:52;;;;;;;9.40;8.30;;;;;;;-128.00;-1.00;-1.00;105746;1251;1003887;-71
2023/05/10 04:54:18;;;;;;;9.20;8.30;;;;;;;-128.00;-1.00;-1.00;105419;1254;1004643;-71
2023/05/10 04:56:45;;;;;;;8.90;8.10;;;;;;;-128.00;-1.00;-1.00;105501;1254;1004365;-70
2023/05/10 04:59:11;;;;;;;8.40;7.70;;;;;;;-128.00;-1.00;-1.00;105502;1254;1005604;-70
2023/05/10 05:01:38;;;;;;;8.30;7.50;;;;;;;-128.00;-1.00;-1.00;105507;1256;1004746;-70
2023/05/10 05:04:04;;;;;;;9.20;8.20;;;;;;;-128.00;-1.00;-1.00;105409;1255;1005795;-70
2023/05/10 05:06:31;;;;;;;10.30;7.40;;;;;;;-128.00;-1.00;-1.00;105499;1254;1004854;-71
2023/05/10 05:08:57;;;;;;;10.40;7.80;;;;;;;-128.00;-1.00;-1.00;105249;1261;1003636;-71
2023/05/10 05:11:25;;;;;;;8.80;7.80;;;;;;;-128.00;-1.00;-1.00;105508;1256;1004671;-71
2023/05/10 05:13:51;;;;;;;10.30;7.70;;;;;;;-128.00;-1.00;-1.00;105498;1254;1003541;-71
2023/05/10 05:16:18;;;;;;;8.80;7.30;;;;;;;-128.00;-1.00;-1.00;105458;1255;1004951;-70
2023/05/10 05:18:44;;;;;;;9.90;6.60;;;;;;;-128.00;-1.00;-1.00;105456;1256;1005511;-70
2023/05/10 05:21:18;;;;;;;9.50;7.40;;;;;;;-128.00;-1.00;-1.00;105509;1254;1004488;-71
2023/05/10 05:23:44;;;;;;;7.60;6.80;;;;;;;-128.00;-1.00;-1.00;105478;1255;1046552;-70
2023/05/10 05:26:11;;;;;;;9.60;7.10;;;;;;;-128.00;-1.00;-1.00;105515;1255;1004614;-71
2023/05/10 05:28:38;;;;;;;10.40;7.10;;;;;;;-128.00;-1.00;-1.00;105455;1254;1004729;-71
2023/05/10 05:31:05;;;;;;;9.70;7.20;;;;;;;-128.00;-1.00;-1.00;105470;1256;1004736;-71
2023/05/10 05:33:32;;;;;;;8.20;7.10;;;;;;;-128.00;-1.00;-1.00;105715;1251;1003612;-71
2023/05/10 05:36:01;;;;;;;7.20;6.50;;;;;;;-128.00;-1.00;-1.00;105760;1251;1005086;-71
2023/05/10 05:38:27;;;;;;;11.00;6.90;;;;;;;-128.00;-1.00;-1.00;105720;1251;1060530;-71
2023/05/10 05:40:54;;;;;;;10.70;6.40;;;;;;;-128.00;-1.00;-1.00;105781;1251;1004826;-71
2023/05/10 05:43:21;;;;;;;9.40;7.40;;;;;;;-128.00;-1.00;-1.00;105714;1251;1003417;-71
2023/05/10 05:45:47;;;;;;;9.90;7.00;;;;;;;-128.00;-1.00;-1.00;105729;1253;1003931;-71
2023/05/10 05:48:14;;;;;;;7.80;6.80;;;;;;;-128.00;-1.00;-1.00;105752;1251;1003990;-71
2023/05/10 05:50:40;;;;;;;7.60;6.90;;;;;;;-128.00;-1.00;-1.00;105783;1251;1003725;-71
2023/05/10 05:53:07;;;;;;;9.10;7.40;;;;;;;-128.00;-1.00;-1.00;105768;1252;1004546;-71
2023/05/10 05:55:34;;;;;;;8.10;6.70;;;;;;;-128.00;-1.00;-1.00;105767;1251;1004884;-71
2023/05/10 05:58:00;;;;;;;7.90;7.20;;;;;;;-128.00;-1.00;-1.00;105755;1251;1004664;-71
2023/05/10 06:00:27;;;;;;;8.00;6.20;;;;;;;-128.00;-1.00;-1.00;105742;1251;1004078;-71
2023/05/10 06:02:53;;;;;;;10.70;7.10;;;;;;;-128.00;-1.00;-1.00;105765;1251;1004228;-71
2023/05/10 06:05:21;;;;;;;7.30;6.50;;;;;;;-128.00;-1.00;-1.00;105779;1251;1005167;-71
2023/05/10 06:07:48;;;;;;;6.90;6.20;;;;;;;-128.00;-1.00;-1.00;105758;1251;1004811;-71
2023/05/10 06:10:14;;;;;;;7.20;6.50;;;;;;;-128.00;-1.00;-1.00;105702;1251;1003785;-71
2023/05/10 06:12:41;;;;;;;7.60;6.90;;;;;;;-128.00;-1.00;-1.00;105728;1251;1004260;-71
2023/05/10 06:15:08;;;;;;;6.90;6.30;;;;;;;-128.00;-1.00;-1.00;105737;1251;1004486;-71
2023/05/10 06:17:35;;;;;;;7.40;6.60;;;;;;;-128.00;-1.00;-1.00;105500;1251;1003544;-71
2023/05/10 06:20:01;;;;;;;7.00;6.30;;;;;;;-128.00;-1.00;-1.00;105703;1252;1003772;-71
2023/05/10 06:22:28;;;;;;;7.90;6.60;;;;;;;-128.00;-1.00;-1.00;105771;1251;1003585;-71
2023/05/10 06:24:55;;;;;;;10.50;6.90;;;;;;;-128.00;-1.00;-1.00;105775;1251;1003901;-70
2023/05/10 06:27:21;;;;;;;9.10;6.30;;;;;;;-128.00;-1.00;-1.00;105766;1251;1003824;-71
2023/05/10 06:29:48;;;;;;;7.10;6.30;;;;;;;-128.00;-1.00;-1.00;105714;1251;1003488;-71
2023/05/10 06:32:14;;;;;;;7.90;6.90;;;;;;;-128.00;-1.00;-1.00;105717;1251;1004606;-70
2023/05/10 06:34:43;;;;;;;6.10;5.50;;;;;;;-128.00;-1.00;-1.00;105752;1251;1004290;-71
2023/05/10 06:37:09;;;;;;;7.20;6.50;;;;;;;-128.00;-1.00;-1.00;105476;1251;1003772;-71
2023/05/10 06:39:36;;;;;;;8.60;6.60;;;;;;;-128.00;-1.00;-1.00;105802;1251;1004400;-71
2023/05/10 06:42:04;;;;;;;9.30;6.30;;;;;;;-128.00;-1.00;-1.00;105757;1251;1004524;-71
2023/05/10 06:44:30;;;;;;;6.90;6.20;;;;;;;-128.00;-1.00;-1.00;105688;1251;1003940;-71
2023/05/10 06:46:57;;;;;;;6.60;5.90;;;;;;;-128.00;-1.00;-1.00;105720;1251;1003796;-71
2023/05/10 06:49:23;;;;;;;8.30;6.00;;;;;;;-128.00;-1.00;-1.00;105747;1251;1004609;-70
2023/05/10 06:51:50;;;;;;;8.10;6.00;;;;;;;-128.00;-1.00;-1.00;105757;1251;1004607;-71
2023/05/10 06:54:17;;;;;;;5.80;5.00;;;;;;;-128.00;-1.00;-1.00;105741;1251;1004217;-71
2023/05/10 06:56:44;;;;;;;6.70;6.00;;;;;;;-128.00;-1.00;-1.00;105732;1251;1004494;-70
2023/05/10 06:59:10;;;;;;;6.90;5.50;;;;;;;-128.00;-1.00;-1.00;105803;1251;1003903;-71
2023/05/10 07:01:36;;;;;;;7.30;6.50;;;;;;;-128.00;-1.00;-1.00;105711;1251;1003826;-71
2023/05/10 07:04:03;;;;;;;6.30;5.50;;;;;;;-128.00;-1.00;-1.00;105763;1251;1003829;-72
2023/05/10 07:06:30;;;;;;;7.50;5.90;;;;;;;-128.00;-1.00;-1.00;105510;1252;1004548;-71
2023/05/10 07:08:56;;;;;;;7.80;6.20;;;;;;;-128.00;-1.00;-1.00;105709;1251;1004429;-71
2023/05/10 07:11:23;;;;;;;7.70;5.30;;;;;;;-128.00;-1.00;-1.00;105696;1251;1003978;-71
2023/05/10 07:13:50;;;;;;;7.30;5.50;;;;;;;-128.00;-1.00;-1.00;105738;1251;1004507;-71
2023/05/10 07:16:16;;;;;;;6.70;5.20;;;;;;;-128.00;-1.00;-1.00;105707;1251;1004176;-71
2023/05/10 07:18:43;;;;;;;6.10;5.50;;;;;;;-128.00;-1.00;-1.00;105750;1251;1005047;-71
2023/05/10 07:21:09;;;;;;;6.20;5.60;;;;;;;-128.00;-1.00;-1.00;105734;1252;1003867;-71
2023/05/10 07:23:36;;;;;;;8.60;6.50;;;;;;;-128.00;-1.00;-1.00;105719;1251;1003521;-72
2023/05/10 07:26:02;;;;;;;7.00;5.50;;;;;;;-128.00;-1.00;-1.00;105738;1251;1003639;-72
2023/05/10 07:28:29;;;;;;;7.30;6.00;;;;;;;-128.00;-1.00;-1.00;105685;1251;1004625;-72
2023/05/10 07:30:56;;;;;;;6.70;5.90;;;;;;;-128.00;-1.00;-1.00;105595;1252;1004298;-72
2023/05/10 07:33:22;;;;;;;7.10;5.70;;;;;;;-128.00;-1.00;-1.00;105711;1251;1004823;-72
2023/05/10 07:35:50;;;;;;;6.40;5.30;;;;;;;-128.00;-1.00;-1.00;105722;1251;1004236;-71
2023/05/10 07:38:17;;;;;;;5.90;5.30;;;;;;;-128.00;-1.00;-1.00;105754;1251;1003799;-72
2023/05/10 07:40:43;;;;;;;9.50;7.00;;;;;;;-128.00;-1.00;-1.00;105715;1251;1004630;-72
2023/05/10 07:43:10;;;;;;;9.80;6.40;;;;;;;-128.00;-1.00;-1.00;105752;1251;1004697;-71
2023/05/10 07:45:36;;;;;;;5.70;5.20;;;;;;;-128.00;-1.00;-1.00;105742;1251;1003684;-72
2023/05/10 07:48:03;;;;;;;6.20;4.90;;;;;;;-128.00;-1.00;-1.00;105716;1251;1003352;-71
2023/05/10 07:50:29;;;;;;;8.10;5.50;;;;;;;-128.00;-1.00;-1.00;105779;1251;1003933;-72
2023/05/10 07:52:56;;;;;;;6.40;4.60;;;;;;;-128.00;-1.00;-1.00;105768;1251;1004408;-72
2023/05/10 07:55:23;;;;;;;7.00;5.00;;;;;;;-128.00;-1.00;-1.00;105496;1251;1005099;-71
2023/05/10 07:57:49;;;;;;;9.00;4.80;;;;;;;-128.00;-1.00;-1.00;105705;1251;1003201;-71
2023/05/10 08:00:20;;;;;;;5.80;4.90;;;;;;;-128.00;-1.00;-1.00;105750;1251;1003503;-71
2023/05/10 08:02:47;;;;;;;6.00;5.30;;;;;;;-128.00;-1.00;-1.00;105724;1255;1047105;-70
2023/05/10 08:05:14;;;;;;;4.80;4.20;;;;;;;-128.00;-1.00;-1.00;105736;1251;1004861;-70
2023/05/10 08:07:40;;;;;;;5.70;4.70;;;;;;;-128.00;-1.00;-1.00;105702;1251;1004033;-71
2023/05/10 08:10:08;;;;;;;5.00;4.10;;;;;;;-128.00;-1.00;-1.00;105698;1251;1003890;-70
2023/05/10 08:12:34;;;;;;;4.80;4.00;;;;;;;-128.00;-1.00;-1.00;105722;1251;1004490;-70
2023/05/10 08:15:01;;;;;;;4.30;3.90;;;;;;;-128.00;-1.00;-1.00;105737;1253;1005004;-72
2023/05/10 08:17:27;;;;;;;5.10;4.00;;;;;;;-128.00;-1.00;-1.00;105735;1251;1004125;-70
2023/05/10 08:19:54;;;;;;;8.10;3.90;;;;;;;-128.00;-1.00;-1.00;105727;1251;1005646;-71
2023/05/10 08:22:21;;;;;;;5.90;4.00;;;;;;;-128.00;-1.00;-1.00;105735;1252;1004136;-71
2023/05/10 08:24:47;;;;;;;4.70;3.60;;;;;;;-128.00;-1.00;-1.00;105720;1252;1004259;-70
2023/05/10 08:27:14;;;;;;;4.40;3.80;;;;;;;-128.00;-1.00;-1.00;105710;1253;1004440;-71
2023/05/10 08:29:40;;;;;;;5.50;4.20;;;;;;;-128.00;-1.00;-1.00;105698;1251;1004156;-71
2023/05/10 08:32:07;;;;;;;4.40;3.60;;;;;;;-128.00;-1.00;-1.00;105699;1251;1004393;-70
2023/05/10 08:34:33;;;;;;;5.40;3.90;;;;;;;-128.00;-1.00;-1.00;105713;1251;1004300;-71
2023/05/10 08:37:00;;;;;;;5.60;3.30;;;;;;;-128.00;-1.00;-1.00;105686;1251;1004318;-70
2023/05/10 08:39:27;;;;;;;4.10;3.20;;;;;;;-128.00;-1.00;-1.00;105779;1251;1004439;-71
2023/05/10 08:41:58;;;;;;;5.30;3.20;;;;;;;-128.00;-1.00;-1.00;105679;1251;1003549;-72
2023/05/10 08:44:25;;;;;;;3.70;2.90;;;;;;;-128.00;-1.00;-1.00;105735;1251;1056437;-71
2023/05/10 08:46:54;;;;;;;3.90;2.90;;;;;;;-128.00;-1.00;-1.00;105712;1253;1004335;-72
2023/05/10 08:49:21;;;;;;;4.60;3.00;;;;;;;-128.00;-1.00;-1.00;105707;1251;1044886;-71
2023/05/10 08:51:54;;;;;;;5.60;3.10;;;;;;;-128.00;-1.00;-1.00;105707;1255;1004154;-71
2023/05/10 08:54:21;;;;;;;4.70;3.50;;;;;;;-128.00;-1.00;-1.00;105428;1253;1061191;-71
2023/05/10 08:56:48;;;;;;;3.90;2.90;;;;;;;-128.00;-1.00;-1.00;105503;1259;1004138;-71
2023/05/10 08:59:15;;;;;;;2.60;2.40;;;;;;;-128.00;-1.00;-1.00;105680;1251;1004695;-71
2023/05/10 09:01:44;;;;;;;4.70;2.60;;;;;;;-128.00;-1.00;-1.00;105741;1251;1004692;-72
2023/05/10 09:04:11;;;;;;;5.60;2.20;;;;;;;-128.00;-1.00;-1.00;105709;1252;1046879;-70
2023/05/10 09:06:38;;;;;;;3.40;2.30;;;;;;;-128.00;-1.00;-1.00;105721;1251;1004752;-71
2023/05/10 09:09:05;;;;;;;3.60;2.10;;;;;;;-128.00;-1.00;-1.00;105704;1251;1004675;-71
2023/05/10 09:11:32;;;;;;;2.60;2.40;;;;;;;-128.00;-1.00;-1.00;105741;1251;1006357;-71
2023/05/10 09:13:58;;;;;;;3.60;2.30;;;;;;;-128.00;-1.00;-1.00;105593;1251;1003723;-72
2023/05/10 09:16:25;;;;;;;3.80;2.60;;;;;;;-128.00;-1.00;-1.00;105710;1255;1005105;-70
2023/05/10 09:18:51;;;;;;;6.10;2.80;;;;;;;-128.00;-1.00;-1.00;105724;1251;1003215;-70
2023/05/10 09:21:20;;;;;;;4.20;2.20;;;;;;;-128.00;-1.00;-1.00;105723;1251;1005072;-71
2023/05/10 09:23:49;;;;;;;3.30;2.20;;;;;;;-128.00;-1.00;-1.00;105654;1256;1004413;-70
2023/05/10 09:26:16;;;;;;;2.50;2.20;;;;;;;-128.00;-1.00;-1.00;105688;1252;1045240;-71
2023/05/10 09:28:53;;;;;;;3.60;2.60;;;;;;;-128.00;-1.00;-1.00;105739;1251;1004493;-71
2023/05/10 09:31:20;;;;;;;3.00;2.40;;;;;;;-128.00;-1.00;-1.00;105754;1251;1061377;-71
2023/05/10 09:33:48;;;;;;;2.90;2.40;;;;;;;-128.00;-1.00;-1.00;105555;1254;1003980;-71
2023/05/10 09:36:15;;;;;;;2.40;2.20;;;;;;;-128.00;-1.00;-1.00;105698;1253;1004905;-71
2023/05/10 09:38:47;;;;;;;4.00;2.50;;;;;;;-128.00;-1.00;-1.00;105709;1256;1004509;-70
2023/05/10 09:41:19;;;;;;;3.90;2.40;;;;;;;-128.00;-1.00;-1.00;105741;1251;1046107;-71
2023/05/10 09:43:46;;;;;;;9.30;3.20;;;;;;;-128.00;-1.00;-1.00;105725;1251;1062726;-71
2023/05/10 09:46:13;;;;;;;6.10;3.70;;;;;;;-128.00;-1.00;-1.00;105520;1251;1003934;-71
2023/05/10 09:48:47;;;;;;;3.70;2.50;;;;;;;-128.00;-1.00;-1.00;105728;1251;1003818;-71
2023/05/10 09:51:24;;;;;;;3.10;2.40;;;;;;;-128.00;-1.00;-1.00;105685;1251;1044219;-71
2023/05/10 09:54:15;;;;;;;3.40;2.30;;;;;;;-128.00;-1.00;-1.00;105719;1251;1046700;-71
2023/05/10 09:56:42;;;;;;;5.50;3.10;;;;;;;-128.00;-1.00;-1.00;105737;1251;1061351;-71
2023/05/10 09:59:12;;;;;;;4.30;2.70;;;;;;;-128.00;-1.00;-1.00;105513;1251;1004176;-72
2023/05/10 10:01:39;;;;;;;;;;;;;;;-128.00;-1.00;-1.00;105717;1251;1059076;-70
2023/05/10 10:04:07;;;;;;;12.00;4.50;;;;;;;-128.00;-1.00;-1.00;105727;1251;1004560;-70
2023/05/10 10:06:40;;;;;;;4.10;3.50;;;;;;;-128.00;-1.00;-1.00;105732;1251;1003309;-71
2023/05/10 10:09:07;;;;;;;4.20;2.60;;;;;;;-128.00;-1.00;-1.00;105728;1251;1061123;-71
2023/05/10 10:11:37;;;;;;;3.40;2.70;;;;;;;-128.00;-1.00;-1.00;105689;1251;1004897;-71
2023/05/10 10:14:05;;;;;;;6.00;3.10;;;;;;;-128.00;-1.00;-1.00;105711;1251;1059135;-70
2023/05/10 10:16:32;;;;;;;3.90;2.90;;;;;;;-128.00;-1.00;-1.00;105605;1251;1004466;-70
2023/05/10 10:18:59;;;;;;;7.60;2.90;;;;;;;-128.00;-1.00;-1.00;105682;1251;1005342;-70
2023/05/10 10:21:25;;;;;;;10.80;3.30;;;;;;;-128.00;-1.00;-1.00;105727;1251;1004575;-71
2023/05/10 10:23:52;;;;;;;6.30;3.10;;;;;;;-128.00;-1.00;-1.00;105703;1251;1003853;-71
2023/05/10 10:26:20;;;;;;;5.70;3.10;;;;;;;-128.00;-1.00;-1.00;105711;1251;1004239;-71
2023/05/10 10:28:47;;;;;;;3.60;3.00;;;;;;;-128.00;-1.00;-1.00;105742;1251;1004867;-71
2023/05/10 10:31:39;;;;;;;3.10;2.80;;;;;;;-128.00;-1.00;-1.00;105701;1251;1004664;-71
2023/05/10 10:34:08;;;;;;;3.50;2.80;;;;;;;-128.00;-1.00;-1.00;105732;1251;1062155;-70
2023/05/10 10:36:45;;;;;;;2.50;2.20;;;;;;;-128.00;-1.00;-1.00;105708;1251;1056706;-70
2023/05/10 10:39:12;;;;;;;2.80;2.60;;;;;;;-128.00;-1.00;-1.00;105711;1251;1059581;-71
2023/05/10 10:41:49;;;;;;;4.50;2.50;;;;;;;-128.00;-1.00;-1.00;105696;1255;1003780;-71
2023/05/10 10:44:24;;;;;;;2.60;2.40;;;;;;;-128.00;-1.00;-1.00;105723;1251;1046775;-71
2023/05/10 10:47:11;;;;;;;2.80;2.60;;;;;;;-128.00;-1.00;-1.00;105750;1251;1061035;-71
2023/05/10 10:49:43;;;;;;;3.60;2.30;;;;;;;-128.00;-1.00;-1.00;105752;1251;1055296;-71
2023/05/10 10:52:36;;;;;;;2.50;2.30;;;;;;;-128.00;-1.00;-1.00;105688;1251;1060107;-72
2023/05/10 10:55:08;;;;;;;3.30;2.40;;;;;;;-128.00;-1.00;-1.00;105180;1260;1044924;-71
2023/05/10 10:57:40;;;;;;;3.60;2.00;;;;;;;-128.00;-1.00;-1.00;105175;1259;1046905;-71
2023/05/10 11:00:24;;;;;;;2.50;2.20;;;;;;;-128.00;-1.00;-1.00;105149;1259;1062713;-70
2023/05/10 11:02:52;;;;;;;3.00;2.10;;;;;;;-128.00;-1.00;-1.00;105177;1260;1055301;-71
2023/05/10 11:05:27;;;;;;;3.50;2.10;;;;;;;-128.00;-1.00;-1.00;105180;1261;1004921;-71
2023/05/10 11:07:55;;;;;;;2.70;2.50;;;;;;;-128.00;-1.00;-1.00;105143;1261;1044761;-71
2023/05/10 11:10:23;;;;;;;2.80;2.20;;;;;;;-128.00;-1.00;-1.00;105164;1260;1003745;-70
2023/05/10 11:13:09;;;;;;;2.60;2.40;;;;;;;-128.00;-1.00;-1.00;105119;1261;1004560;-71
2023/05/10 11:15:38;;;;;;;2.30;2.10;;;;;;;-128.00;-1.00;-1.00;105180;1260;1055187;-71
2023/05/10 11:18:21;;;;;;;2.10;1.90;;;;;;;-128.00;-1.00;-1.00;105160;1260;1059798;-71